Time;durP1;ratioP1;P1;durP2;ratioP2;P2;SDS_P1;SDS_P2;PMS_P1;PMS_P2;Temp;Humidity;BMP_temperature;BMP_pressure;BME280_temperature;BME280_humidity;BME280_pressure;Samples;Min_cycle;Max_cycle;Signal;HPM_P1;HPM_P2
2023/06/24 00:01:26;;;;;;;2.30;2.10;;;22.50;99.30;;;;;;4859683;29;20030;-83
2023/06/24 00:03:53;;;;;;;2.97;2.33;;;22.50;98.80;;;;;;4860402;29;20525;-82
2023/06/24 00:06:22;;;;;;;2.30;2.10;;;22.50;98.60;;;;;;4860259;29;20033;-84
2023/06/24 00:08:49;;;;;;;2.78;2.55;;;22.60;98.60;;;;;;4859515;29;20105;-83
2023/06/24 00:11:15;;;;;;;2.38;2.08;;;22.40;98.20;;;;;;4860368;29;20129;-83
2023/06/24 00:13:41;;;;;;;2.50;2.30;;;22.40;98.20;;;;;;4860249;29;20030;-83
2023/06/24 00:16:07;;;;;;;3.47;2.85;;;22.40;98.00;;;;;;4859122;29;20507;-83
2023/06/24 00:18:40;;;;;;;3.30;2.05;;;22.40;97.50;;;;;;4860235;29;20070;-83
2023/06/24 00:21:06;;;;;;;2.20;2.00;;;22.40;97.70;;;;;;4860077;29;20030;-83
2023/06/24 00:23:34;;;;;;;2.10;1.90;;;22.30;97.40;;;;;;4859470;29;20442;-83
2023/06/24 00:26:00;;;;;;;2.75;2.55;;;22.30;97.00;;;;;;4859896;29;20032;-83
2023/06/24 00:28:26;;;;;;;2.33;1.85;;;22.30;96.50;;;;;;4843511;29;20046;-83
2023/06/24 00:30:52;;;;;;;3.15;2.00;;;22.20;96.70;;;;;;4859258;29;20048;-83
2023/06/24 00:33:19;;;;;;;2.28;2.08;;;22.30;96.40;;;;;;4860027;29;20033;-83
2023/06/24 00:35:45;;;;;;;3.05;2.15;;;22.20;96.60;;;;;;4859795;29;20531;-83
2023/06/24 00:38:11;;;;;;;3.75;1.98;;;22.30;96.50;;;;;;4859291;29;20576;-83
2023/06/24 00:40:38;;;;;;;2.03;1.70;;;22.20;96.20;;;;;;4860231;29;20057;-83
2023/06/24 00:43:05;;;;;;;5.15;2.00;;;22.20;96.10;;;;;;4859689;29;20036;-83
2023/06/24 00:45:31;;;;;;;2.10;1.90;;;22.20;96.30;;;;;;4859619;29;20033;-83
2023/06/24 00:48:01;;;;;;;2.35;1.75;;;22.20;96.50;;;;;;4859833;29;20085;-83
2023/06/24 00:50:26;;;;;;;3.53;2.28;;;22.20;96.60;;;;;;4859420;29;20373;-83
2023/06/24 00:52:52;;;;;;;1.85;1.65;;;22.20;96.60;;;;;;4859646;29;20034;-83
2023/06/24 00:55:20;;;;;;;2.75;2.25;;;22.30;96.80;;;;;;4860129;29;20033;-83
2023/06/24 00:57:51;;;;;;;2.78;2.20;;;22.10;96.90;;;;;;4858882;29;20475;-82
2023/06/24 01:00:22;;;;;;;3.47;2.00;;;22.10;96.90;;;;;;4860017;29;20040;-83
2023/06/24 01:02:49;;;;;;;2.78;1.65;;;22.10;97.00;;;;;;4859604;29;20029;-83
2023/06/24 01:05:15;;;;;;;3.88;2.13;;;22.10;97.20;;;;;;4859355;29;20109;-83
2023/06/24 01:07:42;;;;;;;2.53;2.33;;;22.10;97.20;;;;;;4859546;29;20062;-82
2023/06/24 01:10:09;;;;;;;1.85;1.75;;;22.00;97.40;;;;;;4859554;29;20116;-83
2023/06/24 01:12:38;;;;;;;4.28;2.00;;;22.00;97.70;;;;;;4858960;29;20537;-83
2023/06/24 01:15:07;;;;;;;2.00;1.87;;;22.00;97.60;;;;;;4859675;29;20033;-83
2023/06/24 01:17:44;;;;;;;4.80;2.42;;;22.00;97.70;;;;;;4861745;29;20037;-82
2023/06/24 01:20:19;;;;;;;2.75;2.28;;;22.00;97.80;;;;;;4862741;29;20106;-82
2023/06/24 01:23:03;;;;;;;2.60;2.28;;;22.00;97.90;;;;;;4862709;29;20538;-83
2023/06/24 01:25:44;;;;;;;2.42;2.15;;;21.90;98.20;;;;;;4862806;29;20065;-82
2023/06/24 01:28:15;;;;;;;2.60;2.40;;;22.00;98.40;;;;;;4863164;29;20060;-83
2023/06/24 01:31:18;;;;;;;2.58;2.38;;;22.00;98.80;;;;;;4862929;29;20471;-82
2023/06/24 01:33:54;;;;;;;5.03;2.40;;;22.00;98.90;;;;;;4862430;29;20108;-82
2023/06/24 01:36:22;;;;;;;3.08;2.60;;;22.00;99.00;;;;;;4863106;29;20026;-83
2023/06/24 01:38:56;;;;;;;3.22;2.58;;;22.00;98.90;;;;;;4862691;29;20037;-83
2023/06/24 01:41:27;;;;;;;2.70;2.40;;;22.00;98.80;;;;;;4862152;29;20037;-83
2023/06/24 01:43:56;;;;;;;4.60;2.92;;;22.00;98.80;;;;;;4862295;29;20026;-83
2023/06/24 01:46:23;;;;;;;4.95;2.35;;;22.00;98.80;;;;;;4862849;29;20042;-83
2023/06/24 01:48:53;;;;;;;2.72;2.53;;;22.00;99.30;;;;;;4862003;29;20499;-83
2023/06/24 01:51:22;;;;;;;4.65;3.00;;;21.90;99.40;;;;;;4862784;29;20036;-83
2023/06/24 01:53:58;;;;;;;3.47;3.10;;;21.90;99.30;;;;;;4861716;29;20038;-83
2023/06/24 01:56:27;;;;;;;3.92;3.33;;;21.80;99.20;;;;;;4862760;29;20033;-83
2023/06/24 01:58:55;;;;;;;8.02;3.63;;;21.80;99.20;;;;;;4862215;29;20360;-83
2023/06/24 02:01:22;;;;;;;17.23;4.00;;;21.80;99.30;;;;;;4862157;29;20375;-83
2023/06/24 02:03:49;;;;;;;3.80;3.40;;;21.80;99.30;;;;;;4862312;29;20025;-82
2023/06/24 02:06:17;;;;;;;3.88;3.53;;;21.80;99.40;;;;;;4862498;29;20112;-82
2023/06/24 02:08:43;;;;;;;6.53;3.42;;;21.80;99.50;;;;;;4861592;29;20084;-81
2023/06/24 02:11:10;;;;;;;3.80;3.40;;;21.80;99.60;;;;;;4861934;29;20025;-81
2023/06/24 02:13:38;;;;;;;4.95;3.88;;;21.80;99.80;;;;;;4862391;29;20037;-83
2023/06/24 02:16:08;;;;;;;5.75;3.85;;;21.70;99.90;;;;;;4861574;29;20025;-82
2023/06/24 02:18:42;;;;;;;3.88;3.50;;;21.70;99.90;;;;;;4862447;29;20038;-83
2023/06/24 02:21:09;;;;;;;3.60;3.30;;;21.70;99.90;;;;;;4861961;29;20506;-83
2023/06/24 02:23:37;;;;;;;6.88;3.90;;;21.70;99.90;;;;;;4861235;29;20499;-83
2023/06/24 02:26:05;;;;;;;3.60;3.30;;;21.60;99.90;;;;;;4861961;29;20026;-83
2023/06/24 02:28:32;;;;;;;3.53;3.22;;;21.60;99.90;;;;;;4861724;29;20415;-83
2023/06/24 02:30:59;;;;;;;4.45;3.70;;;21.60;99.90;;;;;;4861089;29;20498;-83
2023/06/24 02:33:26;;;;;;;4.38;3.97;;;21.60;99.90;;;;;;4862179;29;20116;-83
2023/06/24 02:35:54;;;;;;;4.68;4.05;;;21.60;99.90;;;;;;4861205;29;20489;-83
2023/06/24 02:38:20;;;;;;;4.53;4.05;;;21.50;99.90;;;;;;4861739;29;20125;-82
2023/06/24 02:40:46;;;;;;;4.85;4.13;;;21.50;99.90;;;;;;4861646;29;20121;-83
2023/06/24 02:43:11;;;;;;;7.93;4.07;;;21.40;99.90;;;;;;4860843;29;20045;-83
2023/06/24 02:45:38;;;;;;;4.47;3.50;;;21.40;99.90;;;;;;4861465;29;20085;-82
2023/06/24 02:48:05;;;;;;;5.38;4.00;;;21.40;99.90;;;;;;4861276;29;20042;-83
2023/06/24 02:50:33;;;;;;;6.50;4.00;;;21.50;99.90;;;;;;4861028;29;20030;-83
2023/06/24 02:52:58;;;;;;;3.90;3.60;;;21.40;99.90;;;;;;4861574;29;20368;-83
2023/06/24 02:55:26;;;;;;;6.15;4.63;;;21.40;99.90;;;;;;4861484;29;20085;-83
2023/06/24 02:57:55;;;;;;;4.78;4.25;;;21.30;99.90;;;;;;4860747;29;20514;-82
2023/06/24 03:00:21;;;;;;;5.05;4.65;;;21.40;99.90;;;;;;4861564;29;20456;-83
2023/06/24 03:02:47;;;;;;;6.88;5.18;;;21.30;99.90;;;;;;4861200;29;20053;-82
2023/06/24 03:05:15;;;;;;;5.22;4.68;;;21.30;99.90;;;;;;4860857;29;20113;-83
2023/06/24 03:07:42;;;;;;;9.68;4.68;;;21.30;99.90;;;;;;4861002;29;20494;-83
2023/06/24 03:10:08;;;;;;;8.00;5.60;;;21.20;99.90;;;;;;4861351;29;20040;-83
2023/06/24 03:12:37;;;;;;;8.20;5.47;;;21.30;99.90;;;;;;4861043;29;20060;-83
2023/06/24 03:15:03;;;;;;;6.80;6.03;;;21.20;99.90;;;;;;4860637;29;20033;-83
2023/06/24 03:17:29;;;;;;;6.15;5.63;;;21.20;99.90;;;;;;4861081;29;20577;-83
2023/06/24 03:19:55;;;;;;;7.45;5.93;;;21.40;99.90;;;;;;4860393;29;20032;-83
2023/06/24 03:22:22;;;;;;;6.30;5.70;;;21.20;99.90;;;;;;4861269;29;20108;-82
2023/06/24 03:24:48;;;;;;;7.63;6.30;;;21.20;99.90;;;;;;4860706;29;20050;-82
2023/06/24 03:27:14;;;;;;;8.38;7.28;;;21.20;99.90;;;;;;4860314;29;20060;-83
2023/06/24 03:29:40;;;;;;;6.38;5.82;;;21.20;99.90;;;;;;4860915;29;20072;-83
2023/06/24 03:32:05;;;;;;;15.07;6.00;;;21.10;99.90;;;;;;4860400;29;20030;-83
2023/06/24 03:34:31;;;;;;;36.53;7.97;;;20.60;99.90;;;;;;4860294;29;20044;-83
2023/06/24 03:36:57;;;;;;;7.80;6.85;;;21.10;99.90;;;;;;4860696;29;20025;-82
2023/06/24 03:39:22;;;;;;;8.60;5.88;;;21.10;99.90;;;;;;4859583;29;20120;-82
2023/06/24 03:41:48;;;;;;;6.68;6.07;;;21.10;99.90;;;;;;4860342;29;20018;-83
2023/06/24 03:44:14;;;;;;;6.25;5.75;;;21.10;99.90;;;;;;4860556;29;20025;-82
2023/06/24 03:46:40;;;;;;;7.35;6.65;;;21.80;99.90;;;;;;4859926;29;20034;-83
2023/06/24 03:49:06;;;;;;;8.23;5.90;;;21.10;99.90;;;;;;4860473;29;20037;-83
2023/06/24 03:51:32;;;;;;;8.70;5.53;;;21.00;99.90;;;;;;4860763;29;20113;-82
2023/06/24 03:53:57;;;;;;;7.45;5.53;;;21.80;99.90;;;;;;4859394;29;20112;-82
2023/06/24 03:56:23;;;;;;;6.78;6.03;;;21.90;99.90;;;;;;4860607;29;20040;-83
2023/06/24 03:58:48;;;;;;;14.43;5.88;;;21.10;99.90;;;;;;4860636;29;20037;-83
2023/06/24 04:01:14;;;;;;;6.43;5.90;;;21.10;99.90;;;;;;4859415;29;20028;-82
2023/06/24 04:03:40;;;;;;;8.52;6.43;;;21.10;99.90;;;;;;4860617;29;20030;-83
2023/06/24 04:06:05;;;;;;;5.75;5.35;;;21.10;99.90;;;;;;4859962;29;20025;-82
2023/06/24 04:08:31;;;;;;;7.95;5.82;;;21.10;99.90;;;;;;4859692;29;20037;-82
2023/06/24 04:11:06;;;;;;;5.55;5.05;;;21.20;99.90;;;;;;4860136;29;20078;-83
2023/06/24 04:13:32;;;;;;;6.85;5.32;;;21.10;99.90;;;;;;4860346;29;20048;-83
2023/06/24 04:15:57;;;;;;;11.25;5.82;;;21.00;99.90;;;;;;4859538;29;20029;-83
2023/06/24 04:18:23;;;;;;;6.00;5.50;;;21.00;99.90;;;;;;4860544;29;20033;-83
2023/06/24 04:20:49;;;;;;;6.55;5.85;;;21.10;99.90;;;;;;4860072;29;20065;-83
2023/06/24 04:23:15;;;;;;;6.68;5.40;;;21.20;99.90;;;;;;4859491;29;20565;-83
2023/06/24 04:25:41;;;;;;;7.47;5.50;;;21.00;99.90;;;;;;4860109;29;20029;-83
2023/06/24 04:28:06;;;;;;;7.18;5.82;;;21.00;99.90;;;;;;4859769;29;20105;-83
2023/06/24 04:30:35;;;;;;;7.13;6.25;;;20.90;99.90;;;;;;4859588;29;20474;-83
2023/06/24 04:33:01;;;;;;;7.25;6.03;;;21.00;99.90;;;;;;4860054;29;20029;-83
2023/06/24 04:35:27;;;;;;;6.15;5.55;;;21.00;99.90;;;;;;4859632;29;20037;-83
2023/06/24 04:37:52;;;;;;;6.60;5.95;;;21.20;99.90;;;;;;4859873;29;20029;-83
2023/06/24 04:40:19;;;;;;;8.48;6.68;;;21.00;99.90;;;;;;4860033;29;20030;-83
2023/06/24 04:42:45;;;;;;;7.60;6.18;;;20.90;99.90;;;;;;4859075;29;20458;-83
2023/06/24 04:45:11;;;;;;;10.80;6.38;;;20.80;99.90;;;;;;4860165;29;20029;-83
2023/06/24 04:47:37;;;;;;;6.90;5.38;;;20.80;99.90;;;;;;4860598;29;20037;-83
2023/06/24 04:50:03;;;;;;;6.25;5.70;;;20.90;99.90;;;;;;4859280;29;20505;-83
2023/06/24 04:52:29;;;;;;;6.88;6.28;;;20.90;99.90;;;;;;4863345;29;20502;-83
2023/06/24 04:54:55;;;;;;;7.38;5.95;;;20.90;99.90;;;;;;4863519;29;20041;-83
2023/06/24 04:57:29;;;;;;;9.10;6.15;;;20.90;99.90;;;;;;4863016;29;20428;-83
2023/06/24 04:59:55;;;;;;;7.90;5.90;;;20.90;99.90;;;;;;4863629;29;20113;-83
2023/06/24 05:02:20;;;;;;;8.98;6.03;;;20.80;99.90;;;;;;4863671;29;20112;-83
2023/06/24 05:04:46;;;;;;;6.65;6.07;;;20.80;99.90;;;;;;4862636;29;20479;-83
2023/06/24 05:07:12;;;;;;;6.72;5.75;;;20.90;99.90;;;;;;4863624;29;20085;-83
2023/06/24 05:09:37;;;;;;;7.35;5.95;;;20.80;99.90;;;;;;4863311;29;20917;-83
2023/06/24 05:12:07;;;;;;;6.82;5.65;;;20.80;99.90;;;;;;4862414;29;20475;-83
2023/06/24 05:14:37;;;;;;;6.80;6.10;;;20.90;99.90;;;;;;4857169;29;20034;-83
2023/06/24 05:17:05;;;;;;;6.35;5.47;;;21.00;99.90;;;;;;4862808;29;20029;-83
2023/06/24 05:19:31;;;;;;;6.97;5.57;;;20.80;99.90;;;;;;4862576;29;20044;-83
2023/06/24 05:21:58;;;;;;;7.30;6.45;;;20.80;99.90;;;;;;4863167;29;20037;-83
2023/06/24 05:24:24;;;;;;;7.63;6.88;;;20.80;99.90;;;;;;4863164;29;20434;-84
2023/06/24 05:26:51;;;;;;;6.13;5.57;;;20.80;99.90;;;;;;4862330;29;20022;-83
2023/06/24 05:29:17;;;;;;;5.30;4.90;;;20.80;99.90;;;;;;4863102;29;20072;-83
2023/06/24 05:31:43;;;;;;;8.52;5.38;;;20.80;99.90;;;;;;4862510;29;20081;-83
2023/06/24 05:34:09;;;;;;;6.53;5.63;;;20.80;99.90;;;;;;4862725;29;20029;-84
2023/06/24 05:36:34;;;;;;;6.63;6.05;;;20.80;99.90;;;;;;4863036;29;20030;-84
2023/06/24 05:39:00;;;;;;;6.70;5.70;;;21.50;99.90;;;;;;4861919;29;20753;-83
2023/06/24 05:41:26;;;;;;;7.80;5.90;;;20.90;99.90;;;;;;4862516;29;20032;-83
2023/06/24 05:44:06;;;;;;;6.20;5.60;;;20.90;99.90;;;;;;4862370;29;20491;-83
2023/06/24 05:46:32;;;;;;;6.82;5.25;;;20.80;99.90;;;;;;4861991;29;20525;-83
2023/06/24 05:48:57;;;;;;;6.72;6.03;;;20.90;99.90;;;;;;4862392;29;20046;-84
2023/06/24 05:51:23;;;;;;;8.45;5.80;;;20.90;99.90;;;;;;4862597;29;20591;-83
2023/06/24 05:53:49;;;;;;;6.20;5.60;;;20.90;99.90;;;;;;4861923;29;20037;-84
2023/06/24 05:56:14;;;;;;;5.95;5.35;;;20.90;99.90;;;;;;4862740;29;20030;-83
2023/06/24 05:58:40;;;;;;;7.80;6.72;;;20.90;99.90;;;;;;4862220;29;20051;-83
2023/06/24 06:01:07;;;;;;;6.57;5.93;;;20.80;99.90;;;;;;4862008;29;20382;-83
2023/06/24 06:03:33;;;;;;;8.05;5.88;;;20.90;99.90;;;;;;4861510;29;20034;-83
2023/06/24 06:05:58;;;;;;;6.75;5.80;;;20.70;99.90;;;;;;4862295;29;20028;-83
2023/06/24 06:08:24;;;;;;;8.15;6.55;;;20.90;99.90;;;;;;4861586;29;20129;-83
2023/06/24 06:10:49;;;;;;;7.93;6.38;;;20.90;99.90;;;;;;4862401;29;20058;-84
2023/06/24 06:13:15;;;;;;;10.13;6.45;;;20.90;99.90;;;;;;4862462;29;20467;-84
2023/06/24 06:15:41;;;;;;;7.25;6.50;;;21.00;99.90;;;;;;4861728;29;20029;-83
2023/06/24 06:18:06;;;;;;;12.02;6.82;;;21.10;99.90;;;;;;4861981;29;20033;-84
2023/06/24 06:20:32;;;;;;;7.13;6.47;;;21.00;99.90;;;;;;4862155;29;20064;-84
2023/06/24 06:22:58;;;;;;;7.75;6.95;;;21.00;99.90;;;;;;4861293;29;20029;-83
2023/06/24 06:25:23;;;;;;;6.80;6.20;;;21.00;99.90;;;;;;4862413;29;20049;-84
2023/06/24 06:27:55;;;;;;;7.80;5.75;;;21.00;99.90;;;;;;4861727;29;20431;-84
2023/06/24 06:30:20;;;;;;;9.55;7.18;;;21.00;99.90;;;;;;4861690;29;20090;-83
2023/06/24 06:32:46;;;;;;;11.45;7.65;;;21.80;99.90;;;;;;4861364;29;20470;-84
2023/06/24 06:35:12;;;;;;;7.43;6.72;;;21.00;99.90;;;;;;4861193;29;20065;-84
2023/06/24 06:37:37;;;;;;;9.48;6.65;;;21.00;99.90;;;;;;4862155;29;20437;-84
2023/06/24 06:40:03;;;;;;;9.00;7.90;;;21.00;99.90;;;;;;4861710;29;20044;-84
2023/06/24 06:42:29;;;;;;;10.10;7.40;;;21.10;99.90;;;;;;4861416;29;20025;-84
2023/06/24 06:44:55;;;;;;;8.07;6.75;;;21.10;99.90;;;;;;4861486;29;20053;-84
2023/06/24 06:47:21;;;;;;;9.30;7.45;;;21.10;99.90;;;;;;4861802;29;20029;-84
2023/06/24 06:49:46;;;;;;;7.53;6.75;;;21.10;99.90;;;;;;4860534;29;20466;-84
2023/06/24 06:52:12;;;;;;;8.50;7.47;;;21.10;99.90;;;;;;4861555;29;20025;-84
2023/06/24 06:54:37;;;;;;;10.07;7.03;;;21.10;99.90;;;;;;4861738;29;20144;-84
2023/06/24 06:57:04;;;;;;;8.20;7.35;;;21.10;99.90;;;;;;4860635;29;20378;-84
2023/06/24 06:59:31;;;;;;;9.55;7.47;;;21.20;99.90;;;;;;4861652;29;20058;-84
2023/06/24 07:01:56;;;;;;;8.52;7.50;;;21.10;99.90;;;;;;4861088;29;20077;-84
2023/06/24 07:04:22;;;;;;;8.63;7.25;;;21.20;99.90;;;;;;4860572;29;20037;-84
2023/06/24 07:06:48;;;;;;;9.55;7.93;;;21.30;99.90;;;;;;4861357;29;20503;-84
2023/06/24 07:09:14;;;;;;;9.55;7.72;;;21.10;99.90;;;;;;4861413;29;20070;-84
2023/06/24 07:11:43;;;;;;;21.58;8.77;;;21.20;99.90;;;;;;4860669;29;20033;-83
2023/06/24 07:14:09;;;;;;;8.20;7.40;;;21.20;99.90;;;;;;4860140;29;20475;-84
2023/06/24 07:16:35;;;;;;;13.10;8.13;;;21.20;99.90;;;;;;4861061;29;20037;-83
2023/06/24 07:19:01;;;;;;;8.75;7.95;;;21.30;99.90;;;;;;4860680;29;20026;-84
2023/06/24 07:21:26;;;;;;;8.57;6.90;;;21.40;99.90;;;;;;4861297;29;20028;-84
2023/06/24 07:23:52;;;;;;;10.38;7.95;;;21.30;99.90;;;;;;4860565;29;20053;-84
2023/06/24 07:26:17;;;;;;;9.02;7.65;;;21.40;99.90;;;;;;4860494;29;20029;-84
2023/06/24 07:28:43;;;;;;;9.45;8.45;;;21.40;99.90;;;;;;4860631;29;20041;-84
2023/06/24 07:31:08;;;;;;;9.30;7.80;;;21.40;99.90;;;;;;4860689;29;20117;-84
2023/06/24 07:33:34;;;;;;;8.65;7.63;;;21.30;99.90;;;;;;4860083;29;20428;-84
2023/06/24 07:36:00;;;;;;;9.25;8.15;;;21.40;99.90;;;;;;4860824;29;20105;-83
2023/06/24 07:38:28;;;;;;;9.77;8.18;;;21.50;99.90;;;;;;4860088;29;20037;-84
2023/06/24 07:40:53;;;;;;;8.57;7.30;;;21.50;99.90;;;;;;4860596;29;20060;-84
2023/06/24 07:43:19;;;;;;;10.23;8.60;;;21.50;99.90;;;;;;4860640;29;20060;-83
2023/06/24 07:45:44;;;;;;;9.88;8.88;;;21.60;99.90;;;;;;4859920;29;20028;-83
2023/06/24 07:48:10;;;;;;;9.65;8.63;;;21.60;99.90;;;;;;4860407;29;20030;-83
2023/06/24 07:50:37;;;;;;;8.43;7.63;;;21.60;99.90;;;;;;4860879;29;20041;-83
2023/06/24 07:53:02;;;;;;;11.95;8.73;;;21.70;99.90;;;;;;4859731;29;20092;-83
2023/06/24 07:55:28;;;;;;;9.75;8.82;;;21.60;99.90;;;;;;4860313;29;20490;-83
2023/06/24 07:57:54;;;;;;;10.70;8.32;;;21.60;99.90;;;;;;4860144;29;20029;-83
2023/06/24 08:00:19;;;;;;;12.32;9.13;;;21.60;99.90;;;;;;4859525;29;20487;-83
2023/06/24 08:02:45;;;;;;;10.48;8.55;;;21.60;99.90;;;;;;4860375;29;20022;-83
2023/06/24 08:05:12;;;;;;;9.57;8.45;;;21.70;99.90;;;;;;4860481;29;20401;-84
2023/06/24 08:07:38;;;;;;;15.88;9.85;;;21.70;99.90;;;;;;4859579;29;20026;-83
2023/06/24 08:10:04;;;;;;;12.38;9.90;;;21.70;99.90;;;;;;4860141;29;20037;-83
2023/06/24 08:12:31;;;;;;;9.95;9.00;;;21.70;99.90;;;;;;4860426;29;20157;-83
2023/06/24 08:14:56;;;;;;;10.77;9.68;;;21.70;99.90;;;;;;4859337;29;20029;-83
2023/06/24 08:17:22;;;;;;;9.50;8.23;;;21.80;99.90;;;;;;4860338;29;20033;-83
2023/06/24 08:19:48;;;;;;;11.25;9.35;;;21.80;99.90;;;;;;4859878;29;20416;-83
2023/06/24 08:22:13;;;;;;;15.70;9.73;;;21.80;99.90;;;;;;4859587;29;20029;-83
2023/06/24 08:24:40;;;;;;;14.38;9.43;;;21.80;99.90;;;;;;4859946;29;20061;-83
2023/06/24 08:27:05;;;;;;;10.82;9.77;;;21.90;99.90;;;;;;4859625;29;20052;-83
2023/06/24 08:29:31;;;;;;;11.60;8.43;;;21.90;99.90;;;;;;4859241;29;20487;-83
2023/06/24 08:31:56;;;;;;;12.63;10.20;;;21.90;99.90;;;;;;4859688;29;20029;-83
2023/06/24 08:34:22;;;;;;;13.18;10.07;;;21.80;99.90;;;;;;4860167;29;20025;-83
2023/06/24 08:36:47;;;;;;;14.88;10.18;;;21.90;99.90;;;;;;4859209;29;20028;-83
2023/06/24 08:39:13;;;;;;;12.05;10.05;;;21.90;99.90;;;;;;4860076;29;20030;-84
2023/06/24 08:41:39;;;;;;;13.05;9.55;;;21.90;99.90;;;;;;4859413;29;20387;-83
2023/06/24 08:44:04;;;;;;;14.10;9.25;;;21.90;99.90;;;;;;4859801;29;20113;-83
2023/06/24 08:46:33;;;;;;;13.00;8.85;;;22.00;99.90;;;;;;4859855;29;20049;-83
2023/06/24 08:49:32;;;;;;;11.85;8.77;;;22.00;99.90;;;;;;4859134;29;20037;-83
2023/06/24 08:52:11;;;;;;;9.52;8.63;;;22.00;99.90;;;;;;4838697;29;20037;-83
2023/06/24 08:54:39;;;;;;;9.82;8.45;;;22.10;99.90;;;;;;4859800;29;20036;-83
2023/06/24 08:57:06;;;;;;;9.77;8.77;;;22.10;99.90;;;;;;4859117;29;20041;-83
2023/06/24 08:59:33;;;;;;;10.60;9.50;;;22.10;99.90;;;;;;4859825;29;20040;-83
2023/06/24 09:01:59;;;;;;;11.18;7.78;;;22.20;99.90;;;;;;4859563;29;20029;-83
2023/06/24 09:04:24;;;;;;;16.27;9.05;;;22.20;99.90;;;;;;4859185;29;20170;-83
2023/06/24 09:06:50;;;;;;;8.65;7.75;;;22.20;99.90;;;;;;4859548;29;20029;-83
2023/06/24 09:09:23;;;;;;;10.85;9.15;;;22.40;99.90;;;;;;4859603;29;20038;-83
2023/06/24 09:11:56;;;;;;;10.93;8.50;;;22.20;99.90;;;;;;4859172;29;20170;-84
2023/06/24 09:14:22;;;;;;;9.52;8.55;;;22.20;99.90;;;;;;4859869;29;20072;-83
2023/06/24 09:16:55;;;;;;;9.10;7.13;;;22.20;99.90;;;;;;4858880;29;20048;-83
2023/06/24 09:19:24;;;;;;;10.65;8.75;;;22.30;99.90;;;;;;4859685;29;20021;-83
2023/06/24 09:21:53;;;;;;;11.23;8.57;;;22.30;99.90;;;;;;4859450;29;20049;-83
2023/06/24 09:24:19;;;;;;;10.70;9.68;;;22.30;99.90;;;;;;4858666;29;20054;-83
2023/06/24 09:26:45;;;;;;;8.90;8.13;;;22.30;99.90;;;;;;4859673;29;20037;-83
2023/06/24 09:29:14;;;;;;;11.70;9.27;;;22.40;99.90;;;;;;4859682;29;20052;-83
2023/06/24 09:31:52;;;;;;;13.63;9.40;;;22.40;99.90;;;;;;4858866;29;20030;-83
2023/06/24 09:34:19;;;;;;;9.57;8.57;;;22.50;99.90;;;;;;4859361;29;20422;-83
2023/06/24 09:36:50;;;;;;;9.48;7.80;;;22.50;99.90;;;;;;4859441;29;20120;-83
2023/06/24 09:39:16;;;;;;;6.60;5.85;;;22.60;99.90;;;;;;4861489;29;20053;-83
2023/06/24 09:41:44;;;;;;;9.60;8.20;;;22.60;99.90;;;;;;4862994;29;20173;-83
2023/06/24 09:44:13;;;;;;;7.97;7.00;;;22.60;99.90;;;;;;4862999;29;20053;-83
2023/06/24 09:46:40;;;;;;;8.10;7.28;;;22.70;99.90;;;;;;4861994;29;20022;-83
2023/06/24 09:49:06;;;;;;;10.38;7.03;;;22.50;99.90;;;;;;4862350;29;20041;-83
2023/06/24 09:51:38;;;;;;;16.17;9.95;;;22.60;99.90;;;;;;4862527;29;20120;-83
2023/06/24 09:54:07;;;;;;;9.48;8.65;;;22.60;99.90;;;;;;4861802;29;20033;-83
2023/06/24 09:56:39;;;;;;;12.15;8.25;;;22.60;99.90;;;;;;4862651;29;20074;-83
2023/06/24 09:59:05;;;;;;;12.93;9.88;;;22.60;99.90;;;;;;4861934;29;20364;-83
2023/06/24 10:01:51;;;;;;;11.68;9.88;;;22.60;99.90;;;;;;4862526;29;20028;-83
2023/06/24 10:04:19;;;;;;;9.38;8.27;;;22.60;99.90;;;;;;4862531;29;20033;-83
2023/06/24 10:06:45;;;;;;;9.50;7.45;;;22.60;99.90;;;;;;4861252;29;20028;-83
2023/06/24 10:09:13;;;;;;;8.75;7.90;;;22.70;99.90;;;;;;4862135;29;20049;-83
2023/06/24 10:11:39;;;;;;;10.52;8.00;;;22.70;99.90;;;;;;4862248;29;20538;-83
2023/06/24 10:14:05;;;;;;;10.32;7.82;;;22.70;99.90;;;;;;4861072;29;20065;-83
2023/06/24 10:16:31;;;;;;;12.30;9.80;;;22.70;99.90;;;;;;4862232;29;20510;-83
2023/06/24 10:19:03;;;;;;;11.13;9.48;;;22.60;99.90;;;;;;4862067;29;20398;-83
2023/06/24 10:21:49;;;;;;;13.38;8.82;;;22.80;99.90;;;;;;4860942;29;20042;-82
2023/06/24 10:24:32;;;;;;;11.90;10.30;;;22.80;99.90;;;;;;4861845;29;20049;-83
2023/06/24 10:27:22;;;;;;;12.35;10.23;;;22.80;99.90;;;;;;4862037;29;20090;-83
2023/06/24 10:29:50;;;;;;;12.88;10.50;;;22.80;99.90;;;;;;4861198;29;20077;-83
2023/06/24 10:32:16;;;;;;;14.13;9.93;;;22.90;99.90;;;;;;4845461;29;20030;-83
2023/06/24 10:34:46;;;;;;;13.88;10.40;;;22.80;99.90;;;;;;4861520;29;20036;-83
2023/06/24 10:37:17;;;;;;;14.18;10.00;;;22.80;99.90;;;;;;4862204;29;20022;-83
2023/06/24 10:40:02;;;;;;;11.55;9.98;;;22.80;99.90;;;;;;4862245;29;20037;-83
2023/06/24 10:42:43;;;;;;;16.05;10.57;;;22.90;99.90;;;;;;4861409;29;20029;-83
2023/06/24 10:45:09;;;;;;;12.02;9.25;;;22.90;99.90;;;;;;4861323;29;20780;-83
2023/06/24 10:47:36;;;;;;;16.35;11.57;;;22.90;99.90;;;;;;4861854;29;20029;-82
2023/06/24 10:50:03;;;;;;;11.43;9.75;;;23.00;99.90;;;;;;4860579;29;20045;-82
2023/06/24 10:52:29;;;;;;;18.95;8.98;;;23.00;99.90;;;;;;4861756;29;20036;-82
2023/06/24 10:54:57;;;;;;;11.00;7.28;;;23.00;99.90;;;;;;4861352;29;20033;-83
2023/06/24 10:57:27;;;;;;;8.77;7.90;;;23.00;99.90;;;;;;4860859;29;20382;-82
2023/06/24 10:59:54;;;;;;;6.60;6.00;;;23.00;99.90;;;;;;4861304;29;20033;-83
2023/06/24 11:02:21;;;;;;;7.55;5.57;;;23.00;99.90;;;;;;4861022;29;20049;-82
2023/06/24 11:04:54;;;;;;;12.63;5.95;;;23.10;99.90;;;;;;4861289;29;20025;-82
2023/06/24 11:07:25;;;;;;;10.35;6.95;;;23.10;99.90;;;;;;4861261;29;20065;-82
2023/06/24 11:10:06;;;;;;;6.72;6.15;;;23.30;99.90;;;;;;4860017;29;20044;-84
2023/06/24 11:12:36;;;;;;;11.75;6.97;;;23.20;99.90;;;;;;4861418;29;20025;-84
2023/06/24 11:15:04;;;;;;;9.75;6.38;;;23.20;99.90;;;;;;4860869;29;20426;-83
2023/06/24 11:17:30;;;;;;;8.50;7.70;;;23.20;99.90;;;;;;4860375;29;20049;-83
2023/06/24 11:19:57;;;;;;;12.40;9.10;;;23.20;99.90;;;;;;4860817;29;20059;-83
2023/06/24 11:22:23;;;;;;;11.52;7.40;;;23.20;99.90;;;;;;4861125;29;20036;-83
2023/06/24 11:24:49;;;;;;;9.13;7.70;;;23.20;99.90;;;;;;4860115;29;20084;-83
2023/06/24 11:27:15;;;;;;;8.18;7.00;;;23.20;99.90;;;;;;4861178;29;20075;-83
2023/06/24 11:29:41;;;;;;;15.05;6.93;;;23.20;99.90;;;;;;4860692;29;20041;-83
2023/06/24 11:32:08;;;;;;;17.23;8.98;;;23.20;99.90;;;;;;4859975;29;20033;-83
2023/06/24 11:34:35;;;;;;;10.05;8.55;;;23.30;99.90;;;;;;4860863;29;20109;-83
2023/06/24 11:37:16;;;;;;;8.18;7.38;;;23.40;99.90;;;;;;4860269;29;20117;-83
2023/06/24 11:39:42;;;;;;;10.35;7.72;;;23.50;99.90;;;;;;4860359;29;20030;-83
2023/06/24 11:42:08;;;;;;;9.10;7.25;;;23.50;99.90;;;;;;4860649;29;20070;-83
2023/06/24 11:44:35;;;;;;;10.50;8.63;;;23.50;99.90;;;;;;4860354;29;20109;-83
2023/06/24 11:47:07;;;;;;;10.98;8.00;;;23.60;99.90;;;;;;4860693;29;20145;-83
2023/06/24 11:49:57;;;;;;;8.02;6.93;;;23.60;99.90;;;;;;4860526;29;20125;-83
2023/06/24 11:52:35;;;;;;;9.45;7.85;;;23.60;99.90;;;;;;4859734;29;20041;-83
2023/06/24 11:55:01;;;;;;;6.95;5.85;;;23.60;99.90;;;;;;4860598;29;20042;-83
2023/06/24 11:57:53;;;;;;;9.38;7.22;;;23.60;99.90;;;;;;4860479;29;20036;-83
2023/06/24 12:00:32;;;;;;;8.98;7.97;;;23.70;99.90;;;;;;4859201;29;20033;-83
2023/06/24 12:03:02;;;;;;;7.57;6.87;;;23.70;99.90;;;;;;4860415;29;20112;-83
2023/06/24 12:05:29;;;;;;;;;;;23.60;99.90;;;;;;4860888;29;20040;-83
2023/06/24 12:07:56;;;;;;;6.43;5.78;;;23.50;99.90;;;;;;4859652;29;19908;-84
2023/06/24 12:10:22;;;;;;;6.97;5.65;;;23.60;99.90;;;;;;4860231;29;20498;-83
2023/06/24 12:12:48;;;;;;;6.20;5.60;;;23.70;99.90;;;;;;4859203;29;20033;-83
2023/06/24 12:15:13;;;;;;;8.73;6.50;;;23.70;99.90;;;;;;4860451;29;20476;-83
2023/06/24 12:17:39;;;;;;;9.02;6.13;;;23.80;99.90;;;;;;4860215;29;20021;-83
2023/06/24 12:20:06;;;;;;;10.73;6.18;;;23.90;99.90;;;;;;4859408;29;20037;-83
2023/06/24 12:22:31;;;;;;;9.52;5.13;;;23.80;99.90;;;;;;4859994;29;20502;-83
2023/06/24 12:24:57;;;;;;;6.82;5.72;;;23.90;99.90;;;;;;4859754;29;20137;-83
2023/06/24 12:27:22;;;;;;;6.20;5.50;;;24.00;99.90;;;;;;4859348;29;20017;-83
2023/06/24 12:29:48;;;;;;;9.27;7.95;;;24.00;99.90;;;;;;4860042;29;20483;-83
2023/06/24 12:32:13;;;;;;;10.82;6.50;;;23.90;99.90;;;;;;4860091;29;20052;-83
2023/06/24 12:34:39;;;;;;;8.13;5.38;;;24.00;99.90;;;;;;4859503;29;20066;-83
2023/06/24 12:37:04;;;;;;;6.63;5.63;;;24.00;99.90;;;;;;4859826;29;20558;-84
2023/06/24 12:39:30;;;;;;;5.53;5.05;;;24.00;99.90;;;;;;4860049;29;20040;-83
2023/06/24 12:41:56;;;;;;;7.93;5.57;;;24.10;99.90;;;;;;4859090;29;20025;-83
2023/06/24 12:44:21;;;;;;;5.50;5.05;;;24.10;99.90;;;;;;4860001;29;20387;-83
2023/06/24 12:46:47;;;;;;;7.75;5.70;;;24.00;99.90;;;;;;4859905;29;20036;-83